createdAt,value
2023-04-22T00:02:14.775Z,9.67
2023-04-22T00:04:42.645Z,9.65
2023-04-22T00:07:09.535Z,9.59
2023-04-22T00:09:36.624Z,9.55
2023-04-22T00:12:03.614Z,9.52
2023-04-22T00:14:30.354Z,9.46
2023-04-22T00:16:57.890Z,9.41
2023-04-22T00:19:24.512Z,9.35
2023-04-22T00:21:51.145Z,9.34
2023-04-22T00:24:17.789Z,9.35
2023-04-22T00:26:44.270Z,9.34
2023-04-22T00:29:11.904Z,9.27
2023-04-22T00:31:38.466Z,9.26
2023-04-22T00:34:05.215Z,9.21
2023-04-22T00:36:31.849Z,9.17
2023-04-22T00:38:58.350Z,9.13
2023-04-22T00:41:25.140Z,9.09
2023-04-22T00:43:52.532Z,9.08
2023-04-22T00:46:20.619Z,9.06
2023-04-22T00:48:47.286Z,8.99
2023-04-22T00:51:13.910Z,8.98
2023-04-22T00:53:40.539Z,8.97
2023-04-22T00:56:07.862Z,8.96
2023-04-22T00:58:34.784Z,8.95
2023-04-22T01:01:01.364Z,8.88
2023-04-22T01:03:30.783Z,8.84
2023-04-22T01:05:58.326Z,8.84
2023-04-22T01:08:29.754Z,8.81
2023-04-22T01:10:57.684Z,8.76
2023-04-22T01:13:24.348Z,8.72
2023-04-22T01:15:53.200Z,8.71
2023-04-22T01:18:19.929Z,8.67
2023-04-22T01:20:46.553Z,8.64
2023-04-22T01:23:20.648Z,8.61
2023-04-22T01:25:48.154Z,8.54
2023-04-22T01:28:16.082Z,8.48
2023-04-22T01:30:43.335Z,8.46
2023-04-22T01:33:11.767Z,8.42
2023-04-22T01:35:40.044Z,8.40
2023-04-22T01:38:08.568Z,8.33
2023-04-22T01:40:35.412Z,8.26
2023-04-22T01:43:02.766Z,8.27
2023-04-22T01:45:29.918Z,8.28
2023-04-22T01:47:56.497Z,8.23
2023-04-22T01:50:24.067Z,8.20
2023-04-22T01:52:51.050Z,8.21
2023-04-22T01:55:17.695Z,8.22
2023-04-22T01:57:44.510Z,8.21
2023-04-22T02:00:12.065Z,8.21
2023-04-22T02:02:38.806Z,8.22
2023-04-22T02:05:07.064Z,8.23
2023-04-22T02:07:33.680Z,8.22
2023-04-22T02:10:01.480Z,8.18
2023-04-22T02:12:28.069Z,8.18
2023-04-22T02:14:54.559Z,8.17
2023-04-22T02:17:22.358Z,8.15
2023-04-22T02:19:48.917Z,8.13
2023-04-22T02:22:15.771Z,8.11
2023-04-22T02:24:43.131Z,8.10
2023-04-22T02:27:09.999Z,8.12
2023-04-22T02:29:36.594Z,8.13
2023-04-22T02:32:03.175Z,8.08
2023-04-22T02:34:29.634Z,8.06
2023-04-22T02:36:56.345Z,8.03
2023-04-22T02:39:22.893Z,8.02
2023-04-22T02:41:49.444Z,8.01
2023-04-22T02:44:15.922Z,8.00
2023-04-22T02:46:42.482Z,7.96
2023-04-22T02:49:11.056Z,7.91
2023-04-22T02:51:39.980Z,7.87
2023-04-22T02:54:06.623Z,7.89
2023-04-22T02:56:33.254Z,7.90
2023-04-22T02:59:00.828Z,7.92
2023-04-22T03:01:27.503Z,7.92
2023-04-22T03:03:54.385Z,7.85
2023-04-22T03:06:21.642Z,7.83
2023-04-22T03:08:49.253Z,7.86
2023-04-22T03:11:15.798Z,7.88
2023-04-22T03:13:42.422Z,7.87
2023-04-22T03:16:09.417Z,7.82
2023-04-22T03:18:36.068Z,7.83
2023-04-22T03:21:02.640Z,7.82
2023-04-22T03:23:30.260Z,7.83
2023-04-22T03:25:56.750Z,7.83
2023-04-22T03:28:23.318Z,7.85
2023-04-22T03:30:49.798Z,7.86
2023-04-22T03:33:16.766Z,7.83
2023-04-22T03:35:43.309Z,7.82
2023-04-22T03:38:09.916Z,7.80
2023-04-22T03:40:36.501Z,7.78
2023-04-22T03:43:03.672Z,7.81
2023-04-22T03:45:30.440Z,7.87
2023-04-22T03:47:57.086Z,7.88
2023-04-22T03:50:23.714Z,7.88
2023-04-22T03:52:50.346Z,7.87
2023-04-22T03:55:17.064Z,7.85
2023-04-22T03:57:43.618Z,7.87
2023-04-22T04:00:10.718Z,7.87
2023-04-22T04:02:37.469Z,7.89
2023-04-22T04:05:05.611Z,7.93
2023-04-22T04:07:32.354Z,7.93
2023-04-22T04:09:58.917Z,7.94
2023-04-22T04:12:25.504Z,7.95
2023-04-22T04:14:52.005Z,7.95
2023-04-22T04:17:18.754Z,7.92
2023-04-22T04:19:45.350Z,7.90
2023-04-22T04:22:11.918Z,7.92
2023-04-22T04:24:42.196Z,7.90
2023-04-22T04:27:09.115Z,7.89
2023-04-22T04:29:36.984Z,7.90
2023-04-22T04:32:04.960Z,7.90
2023-04-22T04:34:34.439Z,7.92
2023-04-22T04:37:01.088Z,7.91
2023-04-22T04:39:29.227Z,7.90
2023-04-22T04:41:58.702Z,7.93
2023-04-22T04:44:31.945Z,7.94
2023-04-22T04:46:58.760Z,7.96
2023-04-22T04:49:27.040Z,7.96
2023-04-22T04:51:53.576Z,7.98
2023-04-22T04:54:20.077Z,8.00
2023-04-22T04:56:46.591Z,8.00
2023-04-22T04:59:13.142Z,8.00
2023-04-22T05:01:39.773Z,8.03
2023-04-22T05:04:06.582Z,8.03
2023-04-22T05:06:33.701Z,8.01
2023-04-22T05:09:00.275Z,8.04
2023-04-22T05:11:26.834Z,8.05
2023-04-22T05:13:53.410Z,8.06
2023-04-22T05:16:20.068Z,8.08
2023-04-22T05:18:47.271Z,8.09
2023-04-22T05:21:13.810Z,8.15
2023-04-22T05:23:40.328Z,8.17
2023-04-22T05:26:06.929Z,8.18
2023-04-22T05:28:33.500Z,8.22
2023-04-22T05:31:00.106Z,8.25
2023-04-22T05:33:26.704Z,8.27
2023-04-22T05:35:53.665Z,8.29
2023-04-22T05:38:20.224Z,8.29
2023-04-22T05:40:46.849Z,8.29
2023-04-22T05:43:14.172Z,8.32
2023-04-22T05:45:40.856Z,8.35
2023-04-22T05:48:07.684Z,8.37
2023-04-22T05:50:34.376Z,8.41
2023-04-22T05:53:00.989Z,8.44
2023-04-22T05:55:29.371Z,8.49
2023-04-22T05:57:55.961Z,8.52
2023-04-22T06:00:22.537Z,8.56
2023-04-22T06:02:49.157Z,8.57
2023-04-22T06:05:15.893Z,8.64
2023-04-22T06:07:42.521Z,8.67
2023-04-22T06:10:09.649Z,8.71
2023-04-22T06:12:36.267Z,8.75
2023-04-22T06:15:03.161Z,8.79
2023-04-22T06:17:29.818Z,8.82
2023-04-22T06:19:56.413Z,8.90
2023-04-22T06:22:22.956Z,8.98
2023-04-22T06:24:49.501Z,9.02
2023-04-22T06:27:16.050Z,9.08
2023-04-22T06:29:42.695Z,9.17
2023-04-22T06:32:09.231Z,9.25
2023-04-22T06:34:35.830Z,9.32
2023-04-22T06:37:02.389Z,9.39
2023-04-22T06:39:28.832Z,9.46
2023-04-22T06:41:55.479Z,9.52
2023-04-22T06:44:22.172Z,9.59
2023-04-22T06:46:48.774Z,9.65
2023-04-22T06:49:15.350Z,9.71
2023-04-22T06:51:41.858Z,9.79
2023-04-22T06:54:08.390Z,9.87
2023-04-22T06:56:36.034Z,9.94
2023-04-22T06:59:03.820Z,9.98
2023-04-22T07:01:30.380Z,10.03
2023-04-22T07:03:57.132Z,10.10
2023-04-22T07:06:24.220Z,10.17
2023-04-22T07:08:50.886Z,10.25
2023-04-22T07:11:17.412Z,10.33
2023-04-22T07:13:44.058Z,10.38
2023-04-22T07:16:11.138Z,10.45
2023-04-22T07:18:38.694Z,10.53
2023-04-22T07:21:05.648Z,10.59
2023-04-22T07:23:32.147Z,10.67
2023-04-22T07:25:58.789Z,10.72
2023-04-22T07:28:25.474Z,10.76
2023-04-22T07:30:51.968Z,10.80
2023-04-22T07:33:18.486Z,10.88
2023-04-22T07:35:45.068Z,10.96
2023-04-22T07:38:13.421Z,11.13
2023-04-22T07:40:41.221Z,11.33
2023-04-22T07:43:07.951Z,11.47
2023-04-22T07:45:34.725Z,11.55
2023-04-22T07:48:01.354Z,11.63
2023-04-22T07:50:28.033Z,11.71
2023-04-22T07:52:54.659Z,11.77
2023-04-22T07:55:21.353Z,11.82
2023-04-22T07:57:47.947Z,11.95
2023-04-22T08:00:14.978Z,12.10
2023-04-22T08:02:42.067Z,12.21
2023-04-22T08:05:08.830Z,12.37
2023-04-22T08:07:35.709Z,12.41
2023-04-22T08:10:02.315Z,12.40
2023-04-22T08:12:28.904Z,12.45
2023-04-22T08:14:55.448Z,12.52
2023-04-22T08:17:22.908Z,12.60
2023-04-22T08:19:49.764Z,12.67
2023-04-22T08:22:18.528Z,12.74
2023-04-22T08:24:45.323Z,12.78
2023-04-22T08:27:11.982Z,12.88
2023-04-22T08:29:38.792Z,12.96
2023-04-22T08:32:05.624Z,12.94
2023-04-22T08:34:32.249Z,13.00
2023-04-22T08:36:59.081Z,13.11
2023-04-22T08:39:25.715Z,13.19
2023-04-22T08:41:53.321Z,13.25
2023-04-22T08:44:21.748Z,13.26
2023-04-22T08:46:49.230Z,13.30
2023-04-22T08:49:16.325Z,13.31
2023-04-22T08:51:44.214Z,13.36
2023-04-22T08:54:12.961Z,13.42
2023-04-22T08:56:42.116Z,13.50
2023-04-22T08:59:10.607Z,13.59
2023-04-22T09:01:38.809Z,13.63
2023-04-22T09:04:06.897Z,13.66
2023-04-22T09:06:33.646Z,13.66
2023-04-22T09:09:01.271Z,13.70
2023-04-22T09:11:29.504Z,13.75
2023-04-22T09:13:56.334Z,13.79
2023-04-22T09:16:23.493Z,13.85
2023-04-22T09:18:50.431Z,13.98
2023-04-22T09:21:17.067Z,14.09
2023-04-22T09:23:53.475Z,14.22
2023-04-22T09:26:22.379Z,14.35
2023-04-22T09:28:53.329Z,14.48
2023-04-22T09:31:21.643Z,14.49
2023-04-22T09:33:54.040Z,14.50
2023-04-22T09:36:24.451Z,14.62
2023-04-22T09:38:55.457Z,14.77
2023-04-22T09:41:33.851Z,14.83
2023-04-22T09:44:02.908Z,14.88
2023-04-22T09:46:31.105Z,15.05
2023-04-22T09:49:04.629Z,15.25
2023-04-22T09:51:32.054Z,15.38
2023-04-22T09:54:06.327Z,15.49
2023-04-22T09:56:48.674Z,15.54
2023-04-22T09:59:22.337Z,15.64
2023-04-22T10:01:50.689Z,15.68
2023-04-22T10:04:21.324Z,15.69
2023-04-22T10:06:48.450Z,15.75
2023-04-22T10:11:44.843Z,15.96
2023-04-22T10:14:13.953Z,16.12
2023-04-22T10:16:43.685Z,16.24
2023-04-22T10:19:14.654Z,16.25
2023-04-22T10:21:44.803Z,16.25
2023-04-22T10:24:19.205Z,16.31
2023-04-22T10:26:50.324Z,16.34
2023-04-22T10:29:19.715Z,16.27
2023-04-22T10:31:54.399Z,16.10
2023-04-22T10:34:21.016Z,16.02
2023-04-22T10:36:55.944Z,15.98
2023-04-22T10:39:23.431Z,15.97
2023-04-22T10:41:52.825Z,15.99
2023-04-22T10:44:21.772Z,16.00
2023-04-22T10:46:56.244Z,16.04
2023-04-22T10:49:25.133Z,16.09
2023-04-22T10:51:54.904Z,16.10
2023-04-22T10:54:30.575Z,16.14
2023-04-22T10:57:07.139Z,16.16
2023-04-22T10:59:42.358Z,16.21
2023-04-22T11:02:11.701Z,16.32
2023-04-22T11:04:39.475Z,16.38
2023-04-22T11:07:31.796Z,16.39
2023-04-22T11:10:04.178Z,16.31
2023-04-22T11:12:39.815Z,16.29
2023-04-22T11:15:07.737Z,16.25
2023-04-22T11:17:35.468Z,16.28
2023-04-22T11:20:03.445Z,16.30
2023-04-22T11:22:35.129Z,16.29
2023-04-22T11:25:05.812Z,16.31
2023-04-22T11:27:32.534Z,16.37
2023-04-22T11:30:10.312Z,16.43
2023-04-22T11:32:38.528Z,16.52
2023-04-22T11:35:07.784Z,16.56
2023-04-22T11:37:48.187Z,16.55
2023-04-22T11:40:29.928Z,16.44
2023-04-22T11:42:59.663Z,16.32
2023-04-22T11:45:27.202Z,16.23
2023-04-22T11:47:54.201Z,16.18
2023-04-22T11:50:24.082Z,16.12
2023-04-22T11:52:54.525Z,16.03
2023-04-22T11:55:21.280Z,15.86
2023-04-22T11:57:56.783Z,15.72
2023-04-22T12:00:25.328Z,15.62
2023-04-22T12:02:58.279Z,15.53
2023-04-22T12:05:45.214Z,15.45
2023-04-22T12:08:19.549Z,15.35
2023-04-22T12:10:49.739Z,15.26
2023-04-22T12:13:25.178Z,15.16
2023-04-22T12:16:00.158Z,15.17
2023-04-22T12:18:33.310Z,15.08
2023-04-22T12:21:10.511Z,15.01
2023-04-22T12:23:48.824Z,14.91
2023-04-22T12:26:18.720Z,14.81
2023-04-22T12:28:47.239Z,14.74
2023-04-22T12:31:15.034Z,14.80
2023-04-22T12:33:43.514Z,14.87
2023-04-22T12:36:11.862Z,14.94
2023-04-22T12:38:38.793Z,14.94
2023-04-22T12:41:06.457Z,14.93
2023-04-22T12:43:36.968Z,14.88
2023-04-22T12:46:04.703Z,14.78
2023-04-22T12:48:32.119Z,14.73
2023-04-22T12:50:59.279Z,14.65
2023-04-22T12:53:27.792Z,14.57
2023-04-22T12:55:55.074Z,14.50
2023-04-22T12:58:21.668Z,14.48
2023-04-22T13:00:48.192Z,14.46
2023-04-22T13:03:14.907Z,14.41
2023-04-22T13:05:41.717Z,14.39
2023-04-22T13:08:08.432Z,14.36
2023-04-22T13:10:35.701Z,14.35
2023-04-22T13:13:18.350Z,14.37
2023-04-22T13:15:47.593Z,14.34
2023-04-22T13:18:16.539Z,14.27
2023-04-22T13:20:43.153Z,14.22
2023-04-22T13:23:10.543Z,14.21
2023-04-22T13:25:37.309Z,14.21
2023-04-22T13:28:03.808Z,14.20
2023-04-22T13:30:30.516Z,14.19
2023-04-22T13:32:57.067Z,14.18
2023-04-22T13:35:24.309Z,14.18
2023-04-22T13:37:50.955Z,14.12
2023-04-22T13:40:17.470Z,14.04
2023-04-22T13:42:45.556Z,14.02
2023-04-22T13:45:12.148Z,14.05
2023-04-22T13:47:38.675Z,14.07
2023-04-22T13:50:06.455Z,14.09
2023-04-22T13:52:33.996Z,14.10
2023-04-22T13:55:00.702Z,14.05
2023-04-22T13:57:27.490Z,14.02
2023-04-22T13:59:54.008Z,14.01
2023-04-22T14:02:20.743Z,14.00
2023-04-22T14:04:47.378Z,14.01
2023-04-22T14:07:14.297Z,14.01
2023-04-22T14:09:41.164Z,14.00
2023-04-22T14:12:08.569Z,14.00
2023-04-22T14:14:35.336Z,14.03
2023-04-22T14:17:02.091Z,14.04
2023-04-22T14:19:30.345Z,14.03
2023-04-22T14:21:57.241Z,14.00
2023-04-22T14:24:24.465Z,13.98
2023-04-22T14:26:52.971Z,13.91
2023-04-22T14:29:19.997Z,13.89
2023-04-22T14:31:46.836Z,13.90
2023-04-22T14:34:13.482Z,13.89
2023-04-22T14:36:40.084Z,13.84
2023-04-22T14:39:06.728Z,13.85
2023-04-22T14:41:33.321Z,13.83
2023-04-22T14:43:59.974Z,13.83
2023-04-22T14:46:26.625Z,13.86
2023-04-22T14:48:53.206Z,13.88
2023-04-22T14:51:19.808Z,13.84
2023-04-22T14:53:46.414Z,13.83
2023-04-22T14:56:14.169Z,13.83
2023-04-22T14:58:40.740Z,13.86
2023-04-22T15:01:07.734Z,13.85
2023-04-22T15:03:35.918Z,13.86
2023-04-22T15:06:02.808Z,13.84
2023-04-22T15:08:29.469Z,13.85
2023-04-22T15:10:56.974Z,13.85
2023-04-22T15:13:23.579Z,13.81
2023-04-22T15:15:50.400Z,13.82
2023-04-22T15:18:17.061Z,13.81
2023-04-22T15:20:43.652Z,13.77
2023-04-22T15:23:10.350Z,13.78
2023-04-22T15:25:37.822Z,13.77
2023-04-22T15:28:04.357Z,13.75
2023-04-22T15:30:31.980Z,13.72
2023-04-22T15:32:58.644Z,13.68
2023-04-22T15:35:25.320Z,13.62
2023-04-22T15:37:52.686Z,13.60
2023-04-22T15:40:19.303Z,13.57
2023-04-22T15:42:45.893Z,13.54
2023-04-22T15:45:12.547Z,13.51
2023-04-22T15:47:40.619Z,13.43
2023-04-22T15:50:09.603Z,13.36
2023-04-22T15:52:37.809Z,13.34
2023-04-22T15:55:06.019Z,13.34
2023-04-22T15:57:34.373Z,13.28
2023-04-22T16:00:11.182Z,13.21
2023-04-22T16:02:39.238Z,13.16
2023-04-22T16:05:06.294Z,13.09
2023-04-22T16:07:32.927Z,13.00
2023-04-22T16:09:59.436Z,12.95
2023-04-22T16:12:25.979Z,12.93
2023-04-22T16:14:52.578Z,12.91
2023-04-22T16:17:20.947Z,12.90
2023-04-22T16:19:47.681Z,12.83
2023-04-22T16:22:14.164Z,12.70
2023-04-22T16:24:43.821Z,12.63
2023-04-22T16:27:16.137Z,12.56
2023-04-22T16:29:43.273Z,12.49
2023-04-22T16:32:10.121Z,12.41
2023-04-22T16:34:37.007Z,12.30
2023-04-22T16:37:04.285Z,12.28
2023-04-22T16:39:31.158Z,12.16
2023-04-22T16:41:57.771Z,12.01
2023-04-22T16:44:24.433Z,11.98
2023-04-22T16:46:50.978Z,11.94
2023-04-22T16:49:17.594Z,11.87
2023-04-22T16:51:44.146Z,11.82
2023-04-22T16:54:10.688Z,11.77
2023-04-22T16:56:37.744Z,11.77
2023-04-22T16:59:04.340Z,11.76
2023-04-22T17:01:31.280Z,11.81
2023-04-22T17:03:58.264Z,11.80
2023-04-22T17:06:24.985Z,11.75
2023-04-22T17:08:52.683Z,11.70
2023-04-22T17:11:19.356Z,11.79
2023-04-22T17:13:45.860Z,11.92
2023-04-22T17:16:12.467Z,11.95
2023-04-22T17:18:39.083Z,11.95
2023-04-22T17:21:07.171Z,11.98
2023-04-22T17:23:33.811Z,11.99
2023-04-22T17:26:00.357Z,11.96
2023-04-22T17:28:27.021Z,11.91
2023-04-22T17:30:53.650Z,11.93
2023-04-22T17:33:20.240Z,11.88
2023-04-22T17:35:46.851Z,11.89
2023-04-22T17:38:14.127Z,11.85
2023-04-22T17:40:40.894Z,11.83
2023-04-22T17:43:07.557Z,11.82
2023-04-22T17:45:34.148Z,11.78
2023-04-22T17:48:00.826Z,11.77
2023-04-22T17:50:27.566Z,11.68
2023-04-22T17:52:54.509Z,11.62
2023-04-22T17:55:21.164Z,11.59
2023-04-22T17:57:47.769Z,11.60
2023-04-22T18:00:14.846Z,11.57
2023-04-22T18:02:42.238Z,11.56
2023-04-22T18:05:09.478Z,11.55
2023-04-22T18:07:36.244Z,11.55
2023-04-22T18:10:02.880Z,11.54
2023-04-22T18:12:30.890Z,11.53
2023-04-22T18:14:58.336Z,11.57
2023-04-22T18:17:24.970Z,11.59
2023-04-22T18:19:54.448Z,11.66
2023-04-22T18:22:25.125Z,11.72
2023-04-22T18:24:52.132Z,11.70
2023-04-22T18:27:18.727Z,11.69
2023-04-22T18:29:46.755Z,11.66
2023-04-22T18:32:14.073Z,11.63
2023-04-22T18:34:41.009Z,11.56
2023-04-22T18:37:07.810Z,11.49
2023-04-22T18:39:34.358Z,11.43
2023-04-22T18:42:02.323Z,11.39
2023-04-22T18:44:28.942Z,11.35
2023-04-22T18:46:55.668Z,11.30
2023-04-22T18:49:22.240Z,11.25
2023-04-22T18:51:49.360Z,11.20
2023-04-22T18:54:16.113Z,11.16
2023-04-22T18:56:42.645Z,11.12
2023-04-22T18:59:09.345Z,11.07
2023-04-22T19:01:36.580Z,11.07
2023-04-22T19:04:04.081Z,11.04
2023-04-22T19:06:30.745Z,11.00
2023-04-22T19:08:57.384Z,10.92
2023-04-22T19:11:24.810Z,10.89
2023-04-22T19:13:53.515Z,10.86
2023-04-22T19:16:20.402Z,10.85
2023-04-22T19:18:47.112Z,10.80
2023-04-22T19:21:13.798Z,10.76
2023-04-22T19:23:41.572Z,10.73
2023-04-22T19:26:09.610Z,10.67
2023-04-22T19:28:36.771Z,10.62
2023-04-22T19:31:04.954Z,10.59
2023-04-22T19:33:31.973Z,10.56
2023-04-22T19:35:58.537Z,10.51
2023-04-22T19:38:25.210Z,10.46
2023-04-22T19:40:51.806Z,10.42
2023-04-22T19:43:19.348Z,10.41
2023-04-22T19:45:46.347Z,10.38
2023-04-22T19:48:13.512Z,10.35
2023-04-22T19:50:42.910Z,10.30
2023-04-22T19:53:10.530Z,10.25
2023-04-22T19:55:38.214Z,10.21
2023-04-22T19:58:05.421Z,10.16
2023-04-22T20:00:33.550Z,10.09
2023-04-22T20:03:00.349Z,10.06
2023-04-22T20:05:27.578Z,10.04
2023-04-22T20:07:58.492Z,10.02
2023-04-22T20:10:26.516Z,10.01
2023-04-22T20:12:54.779Z,9.98
2023-04-22T20:15:21.589Z,9.95
2023-04-22T20:17:49.001Z,9.90
2023-04-22T20:20:18.595Z,9.85
2023-04-22T20:22:46.048Z,9.79
2023-04-22T20:25:14.846Z,9.74
2023-04-22T20:27:42.024Z,9.71
2023-04-22T20:30:10.022Z,9.67
2023-04-22T20:32:36.944Z,9.63
2023-04-22T20:35:04.634Z,9.62
2023-04-22T20:37:31.952Z,9.59
2023-04-22T20:40:04.372Z,9.55
2023-04-22T20:42:32.756Z,9.54
2023-04-22T20:44:59.503Z,9.50
2023-04-22T20:47:27.177Z,9.47
2023-04-22T20:49:53.741Z,9.47
2023-04-22T20:52:20.343Z,9.46
2023-04-22T20:54:51.273Z,9.48
2023-04-22T20:57:18.815Z,9.48
2023-04-22T20:59:46.450Z,9.47
2023-04-22T21:02:16.152Z,9.44
2023-04-22T21:04:43.183Z,9.45
2023-04-22T21:07:12.034Z,9.45
2023-04-22T21:09:38.776Z,9.44
2023-04-22T21:12:05.829Z,9.43
2023-04-22T21:14:32.645Z,9.40
2023-04-22T21:17:04.303Z,9.38
2023-04-22T21:19:34.528Z,9.34
2023-04-22T21:22:06.067Z,9.33
2023-04-22T21:24:35.082Z,9.30
2023-04-22T21:27:02.841Z,9.29
2023-04-22T21:29:29.870Z,9.26
2023-04-22T21:32:08.070Z,9.24
2023-04-22T21:34:36.320Z,9.22
2023-04-22T21:37:02.946Z,9.19
2023-04-22T21:39:29.969Z,9.18
2023-04-22T21:41:56.779Z,9.20
2023-04-22T21:44:23.324Z,9.20
2023-04-22T21:46:50.017Z,9.20
2023-04-22T21:49:16.630Z,9.19
2023-04-22T21:51:43.229Z,9.17
2023-04-22T21:54:09.893Z,9.12
2023-04-22T21:56:36.502Z,9.08
2023-04-22T21:59:03.155Z,9.08
2023-04-22T22:01:29.802Z,9.07
2023-04-22T22:03:56.678Z,9.10
2023-04-22T22:06:23.817Z,9.09
2023-04-22T22:08:50.484Z,9.08
2023-04-22T22:11:27.540Z,9.06
2023-04-22T22:13:57.148Z,9.07
2023-04-22T22:16:24.744Z,9.09
2023-04-22T22:18:51.915Z,9.07
2023-04-22T22:21:19.937Z,9.06
2023-04-22T22:23:46.523Z,9.06
2023-04-22T22:26:13.419Z,9.08
2023-04-22T22:28:40.025Z,9.07
2023-04-22T22:31:07.230Z,9.09
2023-04-22T22:33:34.478Z,9.10
2023-04-22T22:36:01.247Z,9.10
2023-04-22T22:38:27.928Z,9.12
2023-04-22T22:40:54.453Z,9.13
2023-04-22T22:43:20.991Z,9.14
2023-04-22T22:45:47.730Z,9.14
2023-04-22T22:48:14.614Z,9.14
2023-04-22T22:50:41.120Z,9.10
2023-04-22T22:53:07.758Z,9.09
2023-04-22T22:55:34.574Z,9.11
2023-04-22T22:58:01.169Z,9.10
2023-04-22T23:00:27.829Z,9.09
2023-04-22T23:02:54.923Z,9.06
2023-04-22T23:05:21.846Z,9.06
2023-04-22T23:07:48.527Z,9.05
2023-04-22T23:10:15.677Z,9.03
2023-04-22T23:12:42.326Z,9.04
2023-04-22T23:15:09.262Z,9.05
2023-04-22T23:17:36.760Z,9.01
2023-04-22T23:20:04.417Z,9.01
2023-04-22T23:22:32.215Z,9.03
2023-04-22T23:24:59.289Z,9.02
2023-04-22T23:27:26.104Z,8.99
2023-04-22T23:29:53.053Z,8.98
2023-04-22T23:32:25.690Z,8.98
2023-04-22T23:34:54.358Z,8.96
2023-04-22T23:37:21.338Z,8.97
2023-04-22T23:39:47.915Z,8.98
2023-04-22T23:42:14.463Z,8.97
2023-04-22T23:44:41.194Z,8.92
2023-04-22T23:47:07.967Z,8.91
2023-04-22T23:49:34.586Z,8.86
2023-04-22T23:52:01.086Z,8.84
2023-04-22T23:54:28.723Z,8.82
2023-04-22T23:56:55.440Z,8.80
2023-04-22T23:59:22.361Z,8.77
